Time;durP1;ratioP1;P1;durP2;ratioP2;P2;SDS_P1;SDS_P2;PMS_P1;PMS_P2;Temp;Humidity;BMP_temperature;BMP_pressure;BME280_temperature;BME280_humidity;BME280_pressure;Samples;Min_cycle;Max_cycle;Signal;HPM_P1;HPM_P2
2023/11/23 00:01:13;;;;;;;11.10;6.10;;;;;;;-0.14;64.47;102220.62;107533;1256;107696;-60
2023/11/23 00:03:41;;;;;;;12.30;5.20;;;;;;;-0.16;64.54;102221.70;107614;1256;98365;-61
2023/11/23 00:06:10;;;;;;;10.60;6.50;;;;;;;-0.16;64.70;102216.95;107579;1254;97723;-61
2023/11/23 00:08:40;;;;;;;10.60;6.00;;;;;;;-0.15;64.95;102215.52;107534;1253;111778;-60
2023/11/23 00:11:09;;;;;;;11.00;5.90;;;;;;;-0.13;65.11;102211.76;107557;1254;108820;-61
2023/11/23 00:13:38;;;;;;;11.80;6.00;;;;;;;-0.12;64.98;102209.11;107540;1257;107604;-60
2023/11/23 00:16:07;;;;;;;9.70;5.90;;;;;;;-0.12;64.53;102207.00;107560;1256;97831;-61
2023/11/23 00:18:35;;;;;;;10.30;5.80;;;;;;;-0.13;64.92;102207.20;107519;1256;97896;-60
2023/11/23 00:21:03;;;;;;;9.80;6.10;;;;;;;-0.11;64.93;102195.88;107652;1251;111174;-60
2023/11/23 00:23:32;;;;;;;10.60;6.40;;;;;;;-0.11;64.69;102192.52;107570;1251;109826;-60
2023/11/23 00:26:03;;;;;;;9.30;6.50;;;;;;;-0.12;64.40;102194.47;107558;1254;107473;-60
2023/11/23 00:28:31;;;;;;;14.40;6.70;;;;;;;-0.15;64.31;102192.77;107547;1253;99697;-59
2023/11/23 00:30:59;;;;;;;10.00;6.00;;;;;;;-0.18;64.46;102186.30;107613;1251;97715;-60
2023/11/23 00:33:28;;;;;;;9.30;6.30;;;;;;;-0.17;64.80;102183.81;107665;1251;110931;-60
2023/11/23 00:35:56;;;;;;;10.80;6.50;;;;;;;-0.15;65.26;102180.43;107554;1256;110973;-60
2023/11/23 00:38:25;;;;;;;11.20;6.40;;;;;;;-0.12;64.63;102183.89;107596;1255;108319;-61
2023/11/23 00:40:53;;;;;;;8.90;6.00;;;;;;;-0.14;63.93;102182.00;107654;1253;97835;-60
2023/11/23 00:43:21;;;;;;;10.00;6.60;;;;;;;-0.20;64.08;102186.88;107547;1251;97869;-61
2023/11/23 00:45:50;;;;;;;11.40;6.50;;;;;;;-0.22;63.95;102187.09;107665;1252;111801;-61
2023/11/23 00:48:20;;;;;;;10.20;6.50;;;;;;;-0.24;64.18;102180.26;107530;1253;110053;-60
2023/11/23 00:50:49;;;;;;;9.30;6.20;;;;;;;-0.25;63.98;102178.70;107584;1256;106666;-59
2023/11/23 00:53:17;;;;;;;11.00;6.50;;;;;;;-0.27;64.08;102179.95;107476;1256;97864;-60
2023/11/23 00:55:45;;;;;;;10.20;6.40;;;;;;;-0.28;64.17;102173.83;107594;1252;97753;-59
2023/11/23 00:58:13;;;;;;;8.30;5.50;;;;;;;-0.29;64.32;102167.30;107584;1254;110725;-60
2023/11/23 01:00:43;;;;;;;9.40;5.70;;;;;;;-0.27;64.23;102171.86;107609;1253;109285;-61
2023/11/23 01:03:11;;;;;;;14.50;6.40;;;;;;;-0.27;64.05;102173.11;107462;1257;107399;-61
2023/11/23 01:05:40;;;;;;;8.60;5.10;;;;;;;-0.30;63.66;102171.39;107545;1256;97707;-62
2023/11/23 01:08:08;;;;;;;11.40;6.60;;;;;;;-0.36;63.57;102167.63;107515;1254;98368;-60
2023/11/23 01:10:37;;;;;;;9.90;6.30;;;;;;;-0.45;63.74;102156.54;107431;1253;111297;-60
2023/11/23 01:13:06;;;;;;;10.00;5.30;;;;;;;-0.50;63.91;102155.76;107585;1255;109066;-60
2023/11/23 01:15:34;;;;;;;10.80;6.20;;;;;;;-0.54;63.73;102154.41;107591;1255;108688;-60
2023/11/23 01:18:02;;;;;;;10.50;6.20;;;;;;;-0.55;64.26;102151.63;107572;1256;97714;-61
2023/11/23 01:20:31;;;;;;;9.80;7.00;;;;;;;-0.54;64.07;102154.58;107601;1255;98386;-60
2023/11/23 01:22:59;;;;;;;10.50;6.10;;;;;;;-0.53;64.26;102161.26;107465;1255;111053;-60
2023/11/23 01:25:28;;;;;;;10.60;5.90;;;;;;;-0.50;63.99;102162.29;107622;1257;109845;-61
2023/11/23 01:27:56;;;;;;;10.70;6.40;;;;;;;-0.48;64.11;102160.81;107533;1254;108357;-60
2023/11/23 01:30:24;;;;;;;10.10;5.60;;;;;;;-0.47;63.76;102163.98;107502;1255;97967;-65
2023/11/23 01:32:52;;;;;;;9.70;6.00;;;;;;;-0.49;63.79;102162.23;107614;1254;97701;-61
2023/11/23 01:35:21;;;;;;;9.70;5.90;;;;;;;-0.50;63.73;102166.13;107601;1257;111866;-60
2023/11/23 01:37:49;;;;;;;10.90;6.20;;;;;;;-0.48;63.84;102174.39;107528;1256;108921;-60
2023/11/23 01:40:18;;;;;;;11.10;6.20;;;;;;;-0.52;63.26;102176.93;107563;1251;108404;-62
2023/11/23 01:42:46;;;;;;;10.60;6.20;;;;;;;-0.57;63.46;102185.85;107489;1254;97827;-61
2023/11/23 01:45:17;;;;;;;9.70;6.30;;;;;;;-0.58;63.58;102185.16;107703;1256;98220;-61
2023/11/23 01:47:46;;;;;;;13.20;6.70;;;;;;;-0.58;63.99;102176.52;107569;1254;110815;-61
2023/11/23 01:50:16;;;;;;;12.70;6.80;;;;;;;-0.54;63.51;102181.02;107626;1251;110502;-61
2023/11/23 01:52:45;;;;;;;13.10;7.40;;;;;;;-0.58;63.35;102187.63;107550;1256;106661;-60
2023/11/23 01:55:14;;;;;;;12.80;7.20;;;;;;;-0.65;63.25;102186.70;107609;1254;98192;-61
2023/11/23 01:57:45;;;;;;;10.60;6.20;;;;;;;-0.71;63.32;102189.10;107485;1254;97939;-61
2023/11/23 02:00:13;;;;;;;14.00;6.80;;;;;;;-0.76;63.05;102184.27;107593;1254;112403;-60
2023/11/23 02:02:42;;;;;;;11.10;6.90;;;;;;;-0.85;63.55;102180.56;107597;1256;110637;-60
2023/11/23 02:05:11;;;;;;;11.80;6.60;;;;;;;-0.87;63.99;102182.89;107642;1256;107531;-60
2023/11/23 02:07:39;;;;;;;10.30;6.50;;;;;;;-0.86;64.00;102181.27;107541;1255;97782;-61
2023/11/23 02:10:08;;;;;;;11.40;6.90;;;;;;;-0.86;64.14;102181.83;107443;1255;98392;-61
2023/11/23 02:12:38;;;;;;;13.50;7.40;;;;;;;-0.88;64.11;102183.08;107495;1255;110396;-61
2023/11/23 02:15:09;;;;;;;10.90;6.80;;;;;;;-0.90;63.70;102183.46;107508;1254;108692;-61
2023/11/23 02:17:37;;;;;;;11.50;6.40;;;;;;;-0.93;63.96;102183.33;107510;1255;106909;-60
2023/11/23 02:20:08;;;;;;;11.20;6.10;;;;;;;-0.90;64.48;102180.47;107624;1257;97792;-60
2023/11/23 02:22:38;;;;;;;10.20;6.30;;;;;;;-0.86;64.36;102174.42;107633;1254;98356;-61
2023/11/23 02:25:06;;;;;;;11.80;6.70;;;;;;;-0.85;64.48;102170.85;107637;1254;110425;-60
2023/11/23 02:27:35;;;;;;;12.50;7.30;;;;;;;-0.80;64.73;102164.25;107437;1256;110223;-61
2023/11/23 02:30:07;;;;;;;15.10;7.20;;;;;;;-0.74;64.82;102159.91;107462;1256;108392;-61
2023/11/23 02:32:35;;;;;;;12.10;7.00;;;;;;;-0.68;64.87;102144.48;107557;1254;97709;-60
2023/11/23 02:35:04;;;;;;;16.20;7.10;;;;;;;-0.63;65.00;102144.55;107554;1253;97831;-61
2023/11/23 02:37:33;;;;;;;12.60;7.10;;;;;;;-0.57;64.70;102144.27;107593;1254;113001;-61
2023/11/23 02:40:01;;;;;;;9.90;7.00;;;;;;;-0.55;64.70;102138.23;107461;1254;109808;-61
2023/11/23 02:42:29;;;;;;;10.00;6.90;;;;;;;-0.53;64.62;102140.83;107613;1256;108515;-61
2023/11/23 02:44:59;;;;;;;13.00;7.50;;;;;;;-0.50;64.66;102134.42;107550;1256;97951;-60
2023/11/23 02:47:28;;;;;;;13.80;8.00;;;;;;;-0.47;64.64;102140.70;107649;1254;97685;-61
2023/11/23 02:49:57;;;;;;;10.30;7.20;;;;;;;-0.46;64.37;102138.05;107567;1251;112893;-62
2023/11/23 02:52:25;;;;;;;12.90;7.30;;;;;;;-0.45;64.21;102130.96;107566;1251;109870;-60
2023/11/23 02:54:53;;;;;;;11.20;7.30;;;;;;;-0.50;63.71;102124.38;107498;1254;107918;-61
2023/11/23 02:57:22;;;;;;;13.00;7.90;;;;;;;-0.57;63.56;102117.64;107587;1254;97728;-61
2023/11/23 02:59:50;;;;;;;12.30;7.00;;;;;;;-0.58;63.52;102129.13;107668;1252;97718;-63
2023/11/23 03:02:20;;;;;;;11.90;7.80;;;;;;;-0.58;63.91;102134.60;107493;1253;110803;-61
2023/11/23 03:04:48;;;;;;;11.90;8.00;;;;;;;-0.58;64.05;102130.53;107642;1253;109703;-61
2023/11/23 03:07:17;;;;;;;14.80;8.60;;;;;;;-0.56;64.15;102128.73;107615;1251;108597;-61
2023/11/23 03:09:46;;;;;;;11.90;6.90;;;;;;;-0.56;64.13;102126.78;107619;1255;97826;-60
2023/11/23 03:12:15;;;;;;;16.10;8.30;;;;;;;-0.55;64.23;102124.48;107660;1253;97829;-61
2023/11/23 03:14:43;;;;;;;12.40;7.80;;;;;;;-0.54;64.07;102128.48;107639;1255;111654;-62
2023/11/23 03:17:12;;;;;;;13.90;8.40;;;;;;;-0.55;63.85;102125.00;107601;1255;108257;-63
2023/11/23 03:19:40;;;;;;;12.70;7.90;;;;;;;-0.59;63.68;102127.03;107628;1255;108379;-61
2023/11/23 03:22:08;;;;;;;14.40;7.80;;;;;;;-0.65;63.77;102118.86;107490;1256;97906;-61
2023/11/23 03:24:37;;;;;;;11.60;7.80;;;;;;;-0.66;63.90;102118.69;107403;1251;97785;-61
2023/11/23 03:27:05;;;;;;;13.60;7.40;;;;;;;-0.64;63.90;102118.84;107622;1251;111892;-61
2023/11/23 03:29:33;;;;;;;11.30;8.10;;;;;;;-0.64;64.05;102117.45;107618;1255;108678;-61
2023/11/23 03:32:02;;;;;;;14.70;7.20;;;;;;;-0.65;63.97;102118.31;107626;1251;107449;-61
2023/11/23 03:34:31;;;;;;;12.50;7.90;;;;;;;-0.67;63.91;102114.84;107653;1251;97819;-59
2023/11/23 03:36:59;;;;;;;11.90;7.30;;;;;;;-0.67;64.00;102110.80;107623;1251;97915;-59
2023/11/23 03:39:27;;;;;;;13.40;8.30;;;;;;;-0.67;64.05;102103.92;107623;1254;113277;-60
2023/11/23 03:41:56;;;;;;;15.50;9.10;;;;;;;-0.69;64.03;102102.38;107596;1253;109649;-57
2023/11/23 03:44:24;;;;;;;11.90;6.80;;;;;;;-0.70;63.81;102094.83;107430;1254;108808;-61
2023/11/23 03:46:53;;;;;;;14.40;7.90;;;;;;;-0.72;64.03;102083.59;107589;1251;97913;-60
2023/11/23 03:49:22;;;;;;;30.50;10.00;;;;;;;-0.73;63.73;102075.84;107675;1255;97715;-59
2023/11/23 03:51:50;;;;;;;10.90;7.30;;;;;;;-0.75;64.05;102069.56;107615;1252;111745;-60
2023/11/23 03:54:18;;;;;;;10.90;7.10;;;;;;;-0.77;64.04;102059.55;107632;1254;109388;-61
2023/11/23 03:56:47;;;;;;;14.90;8.80;;;;;;;-0.76;64.10;102050.55;107593;1252;107137;-61
2023/11/23 03:59:16;;;;;;;16.50;8.40;;;;;;;-0.79;63.78;102049.55;107588;1256;99214;-60
2023/11/23 04:01:46;;;;;;;9.40;6.80;;;;;;;-0.83;63.84;102049.29;107656;1254;97807;-61
2023/11/23 04:04:15;;;;;;;11.80;8.40;;;;;;;-0.85;64.07;102050.73;107613;1251;111894;-62
2023/11/23 04:06:44;;;;;;;11.00;8.00;;;;;;;-0.84;64.43;102044.38;107600;1251;109507;-60
2023/11/23 04:09:12;;;;;;;16.40;9.40;;;;;;;-0.80;64.54;102043.57;107606;1254;109400;-59
2023/11/23 04:11:41;;;;;;;16.20;8.20;;;;;;;-0.73;64.71;102042.22;107566;1253;97812;-60
2023/11/23 04:14:09;;;;;;;18.20;8.60;;;;;;;-0.68;64.92;102035.41;107619;1254;97723;-60
2023/11/23 04:16:38;;;;;;;20.80;8.50;;;;;;;-0.62;64.96;102019.60;107583;1251;112454;-61
2023/11/23 04:19:06;;;;;;;15.50;8.10;;;;;;;-0.55;65.33;102019.80;107473;1251;109575;-60
2023/11/23 04:21:34;;;;;;;11.30;7.10;;;;;;;-0.50;65.31;102025.15;107470;1251;107550;-60
2023/11/23 04:24:02;;;;;;;10.50;6.80;;;;;;;-0.44;65.33;102029.96;107597;1254;97848;-60
2023/11/23 04:26:31;;;;;;;12.30;6.90;;;;;;;-0.42;64.91;102027.80;107626;1254;97955;-60
2023/11/23 04:28:59;;;;;;;20.50;8.00;;;;;;;-0.41;64.99;102023.90;107586;1255;111854;-60
2023/11/23 04:31:28;;;;;;;12.00;6.60;;;;;;;-0.38;64.92;102024.00;107638;1254;109899;-61
2023/11/23 04:33:56;;;;;;;11.40;6.70;;;;;;;-0.32;65.16;102033.91;107604;1254;107672;-58
2023/11/23 04:36:28;;;;;;;11.00;6.70;;;;;;;-0.26;64.90;102033.98;107630;1254;97844;-59
2023/11/23 04:38:56;;;;;;;16.20;7.00;;;;;;;-0.26;64.43;102031.66;107656;1251;97876;-59
2023/11/23 04:41:25;;;;;;;10.80;6.80;;;;;;;-0.31;63.89;102021.38;107649;1251;111703;-61
2023/11/23 04:43:54;;;;;;;9.50;6.60;;;;;;;-0.34;64.03;102019.69;107619;1253;109948;-60
2023/11/23 04:46:23;;;;;;;14.60;6.40;;;;;;;-0.37;63.54;102020.46;107586;1254;107200;-63
2023/11/23 04:48:51;;;;;;;16.00;7.10;;;;;;;-0.39;63.66;102020.66;107564;1256;97835;-58
2023/11/23 04:51:19;;;;;;;11.90;7.40;;;;;;;-0.42;63.57;102019.35;107591;1254;97855;-60
2023/11/23 04:53:48;;;;;;;10.20;6.50;;;;;;;-0.45;63.55;102022.42;107578;1251;111338;-65
2023/11/23 04:56:17;;;;;;;12.20;7.30;;;;;;;-0.51;63.51;102022.16;107658;1254;111216;-62
2023/11/23 04:58:45;;;;;;;11.00;7.20;;;;;;;-0.54;63.60;102017.31;107637;1254;108306;-62
2023/11/23 05:01:13;;;;;;;16.20;8.80;;;;;;;-0.57;63.57;102006.45;107567;1251;97797;-61
2023/11/23 05:03:42;;;;;;;14.20;7.90;;;;;;;-0.58;63.68;101996.27;107479;1251;98389;-62
2023/11/23 05:06:11;;;;;;;15.60;8.80;;;;;;;-0.60;63.57;101986.80;107592;1251;111831;-62
2023/11/23 05:08:40;;;;;;;13.30;8.20;;;;;;;-0.63;63.64;101984.38;107630;1251;107601;-61
2023/11/23 05:11:08;;;;;;;12.40;8.10;;;;;;;-0.64;63.69;101984.21;107584;1251;108550;-61
2023/11/23 05:13:36;;;;;;;12.70;7.80;;;;;;;-0.63;63.77;101975.58;107605;1256;97698;-59
2023/11/23 05:16:06;;;;;;;15.20;8.60;;;;;;;-0.65;63.73;101966.45;107638;1251;98389;-61
2023/11/23 05:18:34;;;;;;;15.60;7.80;;;;;;;-0.68;63.62;101960.70;107634;1251;112313;-60
2023/11/23 05:21:04;;;;;;;16.10;8.30;;;;;;;-0.70;63.63;101958.98;107657;1251;109493;-61
2023/11/23 05:23:32;;;;;;;18.10;8.90;;;;;;;-0.72;63.55;101957.25;107640;1251;108441;-61
2023/11/23 05:26:03;;;;;;;20.70;9.40;;;;;;;-0.74;63.79;101953.78;107638;1251;97848;-62
2023/11/23 05:28:31;;;;;;;23.40;10.30;;;;;;;-0.76;63.79;101948.37;107671;1251;97820;-60
2023/11/23 05:30:59;;;;;;;22.20;10.30;;;;;;;-0.77;63.95;101940.64;107455;1253;111698;-61
2023/11/23 05:33:28;;;;;;;19.30;10.90;;;;;;;-0.79;63.67;101929.59;107618;1251;109635;-61
2023/11/23 05:35:56;;;;;;;23.40;10.30;;;;;;;-0.82;63.76;101930.20;107607;1251;108199;-62
2023/11/23 05:38:25;;;;;;;20.10;9.60;;;;;;;-0.79;63.77;101936.45;107632;1251;97832;-62
2023/11/23 05:40:54;;;;;;;15.40;10.00;;;;;;;-0.77;63.77;101934.83;107600;1251;97909;-60
2023/11/23 05:43:24;;;;;;;18.00;10.00;;;;;;;-0.76;63.63;101932.69;107375;1251;111330;-60
2023/11/23 05:45:52;;;;;;;19.90;9.70;;;;;;;-0.77;63.56;101929.38;107501;1253;109140;-60
2023/11/23 05:48:21;;;;;;;20.50;9.90;;;;;;;-0.76;63.84;101930.22;107534;1253;108037;-60
2023/11/23 05:50:49;;;;;;;25.40;9.70;;;;;;;-0.74;63.72;101933.73;107452;1253;97835;-61
2023/11/23 05:53:17;;;;;;;19.80;10.40;;;;;;;-0.75;63.60;101929.16;107529;1253;97762;-61
2023/11/23 05:55:46;;;;;;;24.50;11.00;;;;;;;-0.73;63.67;101921.89;107497;1253;111298;-60
2023/11/23 05:58:14;;;;;;;21.20;11.00;;;;;;;-0.71;63.85;101920.78;107523;1251;110189;-61
2023/11/23 06:00:42;;;;;;;20.90;10.30;;;;;;;-0.67;63.85;101924.58;107480;1251;107605;-61
2023/11/23 06:03:10;;;;;;;30.00;13.90;;;;;;;-0.64;63.86;101917.11;107430;1251;97842;-62
2023/11/23 06:05:39;;;;;;;26.70;10.70;;;;;;;-0.61;63.67;101919.52;107543;1251;97836;-62
2023/11/23 06:08:07;;;;;;;21.40;10.30;;;;;;;-0.62;63.63;101925.17;107551;1253;111967;-60
2023/11/23 06:10:35;;;;;;;29.40;10.90;;;;;;;-0.59;63.92;101929.33;107505;1253;108667;-62
2023/11/23 06:13:04;;;;;;;22.70;11.30;;;;;;;-0.56;64.17;101918.50;107591;1253;106940;-63
2023/11/23 06:15:32;;;;;;;20.50;11.50;;;;;;;-0.52;64.08;101906.95;107566;1253;97726;-61
2023/11/23 06:18:00;;;;;;;23.60;11.80;;;;;;;-0.49;64.23;101893.65;107618;1255;97708;-60
2023/11/23 06:20:41;;;;;;;21.10;11.60;;;;;;;-0.44;64.45;101891.95;107584;1251;111377;-62
2023/11/23 06:23:10;;;;;;;20.80;9.10;;;;;;;-0.43;63.98;101888.59;107608;1251;109869;-59
2023/11/23 06:25:39;;;;;;;16.10;10.20;;;;;;;-0.43;63.86;101883.48;107630;1253;107602;-60
2023/11/23 06:28:07;;;;;;;21.10;9.30;;;;;;;-0.39;64.37;101879.85;107627;1253;97728;-61
2023/11/23 06:30:44;;;;;;;17.80;10.10;;;;;;;-0.33;64.44;101873.89;107601;1251;97780;-59
2023/11/23 06:33:13;;;;;;;17.60;9.80;;;;;;;-0.22;64.67;101867.61;107616;1253;110898;-60
2023/11/23 06:35:42;;;;;;;25.90;11.30;;;;;;;-0.16;64.53;101865.68;107625;1253;110434;-62
2023/11/23 06:38:11;;;;;;;23.10;10.20;;;;;;;-0.08;64.86;101871.13;107640;1251;108487;-61
2023/11/23 06:40:39;;;;;;;20.30;9.90;;;;;;;-0.02;64.42;101868.15;107654;1252;97849;-61
2023/11/23 06:43:07;;;;;;;17.80;10.90;;;;;;;0.01;64.09;101864.71;107595;1253;99574;-62
2023/11/23 06:45:36;;;;;;;20.10;10.60;;;;;;;0.05;63.99;101866.22;107675;1251;111813;-60
2023/11/23 06:48:04;;;;;;;19.00;10.10;;;;;;;0.07;63.94;101862.61;107410;1253;109243;-60
2023/11/23 06:50:33;;;;;;;24.20;11.00;;;;;;;0.11;63.85;101858.96;107437;1253;109404;-59
2023/11/23 06:53:02;;;;;;;16.00;10.60;;;;;;;0.17;64.04;101856.86;107595;1253;97840;-61
2023/11/23 06:55:30;;;;;;;20.30;10.80;;;;;;;0.22;63.76;101849.70;107601;1253;97752;-61
2023/11/23 06:57:59;;;;;;;58.10;13.10;;;;;;;0.21;63.42;101849.00;107458;1253;111536;-59
2023/11/23 07:00:28;;;;;;;26.00;12.60;;;;;;;0.18;63.42;101846.44;107578;1255;109345;-61
2023/11/23 07:02:58;;;;;;;32.30;11.00;;;;;;;0.16;63.56;101844.90;107650;1251;107709;-61
2023/11/23 07:05:26;;;;;;;19.30;11.30;;;;;;;0.15;63.63;101832.92;107441;1251;97708;-60
2023/11/23 07:07:55;;;;;;;24.50;10.80;;;;;;;0.18;63.47;101825.30;107655;1252;97841;-59
2023/11/23 07:10:24;;;;;;;21.80;10.80;;;;;;;0.19;63.60;101815.52;107602;1253;111290;-61
2023/11/23 07:12:52;;;;;;;24.10;10.50;;;;;;;0.20;63.49;101808.63;107631;1253;109409;-61
2023/11/23 07:15:24;;;;;;;19.70;10.50;;;;;;;0.21;63.59;101800.66;107624;1251;108122;-60
2023/11/23 07:17:53;;;;;;;22.50;10.90;;;;;;;0.24;63.65;101791.39;107635;1252;97830;-61
2023/11/23 07:20:22;;;;;;;23.80;10.90;;;;;;;0.31;63.71;101781.67;107614;1255;97922;-61
2023/11/23 07:22:50;;;;;;;19.20;11.30;;;;;;;0.34;63.62;101781.24;107649;1253;111825;-60
2023/11/23 07:25:19;;;;;;;19.10;12.20;;;;;;;0.38;63.64;101775.27;107694;1252;109527;-61
2023/11/23 07:27:48;;;;;;;22.70;11.70;;;;;;;0.43;63.55;101767.73;107581;1253;106702;-61
2023/11/23 07:30:17;;;;;;;27.80;12.60;;;;;;;0.45;63.39;101765.55;107601;1255;97829;-61
2023/11/23 07:32:45;;;;;;;19.30;11.70;;;;;;;0.44;63.30;101757.29;107648;1251;98358;-61
2023/11/23 07:35:14;;;;;;;27.80;13.90;;;;;;;0.43;63.17;101748.67;107652;1251;110413;-61
2023/11/23 07:37:42;;;;;;;18.40;11.80;;;;;;;0.42;63.20;101743.23;107609;1253;109005;-61
2023/11/23 07:40:14;;;;;;;22.20;11.90;;;;;;;0.43;63.54;101737.17;107587;1253;107369;-61
2023/11/23 07:42:43;;;;;;;29.80;13.20;;;;;;;0.50;63.63;101738.05;107578;1253;97939;-61
2023/11/23 07:45:13;;;;;;;23.80;12.20;;;;;;;0.58;63.70;101737.42;107636;1255;98454;-61
2023/11/23 07:47:42;;;;;;;26.60;11.70;;;;;;;0.68;63.82;101736.27;107576;1253;111874;-61
2023/11/23 07:50:12;;;;;;;20.50;12.40;;;;;;;0.77;63.65;101725.54;107647;1253;109401;-60
2023/11/23 07:52:40;;;;;;;28.50;13.20;;;;;;;0.86;63.59;101715.72;107630;1253;108329;-61
2023/11/23 07:55:10;;;;;;;24.10;12.90;;;;;;;0.92;63.43;101708.45;107655;1251;97909;-60
2023/11/23 07:57:39;;;;;;;23.20;12.10;;;;;;;0.96;63.15;101704.09;107609;1251;97715;-59
2023/11/23 08:00:08;;;;;;;30.30;13.80;;;;;;;0.98;63.42;101708.45;107569;1255;110327;-61
2023/11/23 08:02:37;;;;;;;34.00;14.00;;;;;;;1.02;63.53;101693.64;107646;1251;110106;-60
2023/11/23 08:05:06;;;;;;;19.20;11.20;;;;;;;1.08;63.37;101698.39;107579;1251;108136;-60
2023/11/23 08:07:35;;;;;;;24.30;11.30;;;;;;;1.12;63.14;101696.67;107636;1253;97824;-61
2023/11/23 08:10:06;;;;;;;30.90;11.50;;;;;;;1.14;63.16;101686.19;107583;1251;97878;-61
2023/11/23 08:12:34;;;;;;;20.60;10.90;;;;;;;1.17;63.25;101684.30;107685;1253;113051;-60
2023/11/23 08:15:05;;;;;;;22.90;10.40;;;;;;;1.19;63.32;101685.80;107649;1251;109611;-60
2023/11/23 08:17:33;;;;;;;23.30;11.70;;;;;;;1.20;63.10;101675.20;107610;1255;107244;-60
2023/11/23 08:20:07;;;;;;;19.70;11.30;;;;;;;1.21;63.14;101667.70;107619;1253;97957;-60
2023/11/23 08:22:36;;;;;;;24.30;11.50;;;;;;;1.23;63.06;101660.41;107604;1253;97678;-60
2023/11/23 08:25:04;;;;;;;18.00;10.70;;;;;;;1.22;63.41;101658.34;107652;1251;112474;-61
2023/11/23 08:27:33;;;;;;;19.20;9.80;;;;;;;1.24;63.73;101656.31;107578;1255;109879;-61
2023/11/23 08:30:03;;;;;;;25.80;10.70;;;;;;;1.27;63.84;101656.58;107592;1253;109561;-59
2023/11/23 08:32:32;;;;;;;26.20;12.20;;;;;;;1.30;63.89;101653.65;107530;1255;97773;-60
2023/11/23 08:35:01;;;;;;;30.30;14.70;;;;;;;1.39;64.31;101648.00;107593;1253;97823;-62
2023/11/23 08:37:29;;;;;;;18.70;12.00;;;;;;;1.49;64.32;101649.62;107460;1252;111231;-61
2023/11/23 08:39:58;;;;;;;24.10;13.30;;;;;;;1.56;64.32;101641.19;107624;1253;110036;-61
2023/11/23 08:42:26;;;;;;;19.50;11.50;;;;;;;1.65;64.13;101641.25;107541;1253;106973;-60
2023/11/23 08:44:54;;;;;;;25.70;10.30;;;;;;;1.71;63.92;101634.83;107494;1253;97801;-60
2023/11/23 08:47:23;;;;;;;25.50;11.70;;;;;;;1.77;63.77;101634.23;107609;1251;99460;-60
2023/11/23 08:49:52;;;;;;;20.20;11.90;;;;;;;1.88;63.82;101622.16;107593;1252;111726;-62
2023/11/23 08:52:21;;;;;;;20.80;10.90;;;;;;;1.97;63.28;101616.67;107569;1253;109341;-60
2023/11/23 08:54:50;;;;;;;18.70;9.40;;;;;;;2.06;63.14;101615.98;107590;1251;108226;-60
2023/11/23 08:57:18;;;;;;;20.40;11.40;;;;;;;2.17;63.26;101601.05;107566;1251;97929;-61
2023/11/23 08:59:46;;;;;;;20.20;11.30;;;;;;;2.28;62.65;101597.05;107632;1253;97723;-60
2023/11/23 09:02:15;;;;;;;24.50;12.60;;;;;;;2.37;62.77;101583.43;107623;1253;111341;-60
2023/11/23 09:04:48;;;;;;;28.40;10.70;;;;;;;2.50;62.46;101577.40;107675;1253;110101;-59
2023/11/23 09:07:19;;;;;;;21.00;10.70;;;;;;;2.65;62.40;101571.09;107571;1252;107545;-61
2023/11/23 09:09:48;;;;;;;23.00;12.20;;;;;;;2.82;61.77;101562.40;107573;1252;97726;-60
2023/11/23 09:12:16;;;;;;;21.80;11.90;;;;;;;3.08;61.55;101552.94;107660;1252;97829;-62
2023/11/23 09:14:45;;;;;;;25.20;15.60;;;;;;;3.28;61.07;101545.88;107577;1255;111886;-61
2023/11/23 09:17:17;;;;;;;27.90;14.20;;;;;;;3.45;61.17;101532.81;107592;1251;109412;-60
2023/11/23 09:19:46;;;;;;;26.90;14.70;;;;;;;3.66;60.71;101521.55;107427;1253;107554;-61
2023/11/23 09:22:15;;;;;;;25.40;12.60;;;;;;;3.83;60.45;101512.08;107679;1253;97812;-61
2023/11/23 09:24:44;;;;;;;28.40;12.00;;;;;;;4.01;60.32;101501.24;107580;1253;98468;-60
2023/11/23 09:27:14;;;;;;;23.30;12.30;;;;;;;4.20;60.26;101496.60;107670;1251;111717;-63
2023/11/23 09:29:43;;;;;;;25.50;13.60;;;;;;;4.42;59.99;101489.95;107578;1252;109447;-61
2023/11/23 09:32:12;;;;;;;31.50;16.10;;;;;;;4.60;60.10;101482.11;107463;1253;108687;-61
2023/11/23 09:34:40;;;;;;;31.60;14.40;;;;;;;4.85;59.62;101481.17;107622;1253;97836;-61
2023/11/23 09:37:09;;;;;;;29.30;12.10;;;;;;;5.06;57.99;101473.30;107610;1251;97739;-60
2023/11/23 09:39:37;;;;;;;28.10;14.70;;;;;;;5.40;57.93;101463.66;107491;1253;111300;-62
2023/11/23 09:42:07;;;;;;;22.60;13.40;;;;;;;5.77;57.13;101465.48;107687;1251;109713;-60
2023/11/23 09:44:36;;;;;;;34.00;15.30;;;;;;;5.86;56.30;101462.98;107661;1251;105348;-61
2023/11/23 09:47:06;;;;;;;25.30;15.30;;;;;;;5.96;56.73;101460.50;107533;1253;97839;-61
2023/11/23 09:49:37;;;;;;;27.20;13.80;;;;;;;6.25;56.95;101458.11;107574;1253;98360;-60
2023/11/23 09:52:06;;;;;;;22.40;13.30;;;;;;;6.47;56.35;101447.00;107620;1252;111034;-60
2023/11/23 09:54:35;;;;;;;26.40;15.60;;;;;;;6.75;54.94;101433.03;107652;1251;108238;-61
2023/11/23 09:57:04;;;;;;;24.50;12.70;;;;;;;6.90;54.59;101424.08;107516;1251;107555;-62
2023/11/23 09:59:33;;;;;;;16.60;11.10;;;;;;;7.24;55.38;101407.99;107619;1252;97843;-61
2023/11/23 10:02:04;;;;;;;19.60;12.20;;;;;;;7.39;53.29;101400.27;107602;1253;97731;-61
2023/11/23 10:04:33;;;;;;;20.60;12.30;;;;;;;7.28;53.31;101392.42;107584;1251;112002;-61
2023/11/23 10:07:03;;;;;;;31.50;12.70;;;;;;;7.27;52.96;101386.60;107606;1253;110250;-61
2023/11/23 10:09:33;;;;;;;22.20;12.70;;;;;;;7.27;52.23;101373.52;107623;1254;107950;-61
2023/11/23 10:12:05;;;;;;;22.80;12.80;;;;;;;7.47;52.73;101363.35;107269;1252;347198;-61
2023/11/23 10:14:33;;;;;;;20.60;12.90;;;;;;;7.77;51.71;101359.89;107690;1252;97863;-61
2023/11/23 10:17:02;;;;;;;21.50;11.90;;;;;;;7.98;51.80;101350.46;107606;1252;111921;-61
2023/11/23 10:19:31;;;;;;;20.40;12.00;;;;;;;8.36;52.26;101348.61;107428;1253;109229;-61
2023/11/23 10:21:59;;;;;;;18.80;11.70;;;;;;;8.63;50.33;101338.52;107520;1251;108252;-61
2023/11/23 10:24:28;;;;;;;25.30;11.30;;;;;;;8.73;48.97;101328.48;107591;1252;97832;-63
2023/11/23 10:26:58;;;;;;;21.20;11.90;;;;;;;8.72;48.74;101319.29;107521;1256;97737;-62
2023/11/23 10:29:29;;;;;;;21.80;12.90;;;;;;;8.61;49.08;101316.10;107599;1253;109484;-59
2023/11/23 10:32:01;;;;;;;20.10;13.00;;;;;;;8.56;50.02;101312.02;107491;1251;109684;-59
2023/11/23 10:34:32;;;;;;;18.40;11.80;;;;;;;8.58;49.21;101304.32;107658;1253;108381;-59
2023/11/23 10:37:00;;;;;;;24.80;12.00;;;;;;;8.62;49.97;101295.83;107510;1253;97716;-60
2023/11/23 10:39:31;;;;;;;20.90;12.50;;;;;;;8.66;49.48;101288.92;107459;1253;98425;-59
2023/11/23 10:41:59;;;;;;;24.80;12.50;;;;;;;8.65;48.88;101284.73;107550;1253;110271;-60
2023/11/23 10:44:29;;;;;;;22.80;12.50;;;;;;;8.68;49.77;101281.66;107650;1253;109801;-63
2023/11/23 10:47:03;;;;;;;23.00;12.00;;;;;;;8.71;49.25;101268.74;107503;1253;107218;-63
2023/11/23 10:49:37;;;;;;;27.20;12.90;;;;;;;8.61;49.13;101264.09;107552;1253;97967;-62
2023/11/23 10:52:10;;;;;;;19.40;12.70;;;;;;;8.49;48.65;101262.23;107581;1254;97845;-62
2023/11/23 10:54:39;;;;;;;23.10;13.40;;;;;;;8.41;49.38;101251.52;107594;1253;112479;-62
2023/11/23 10:57:10;;;;;;;26.70;12.50;;;;;;;8.37;48.98;101250.06;107615;1252;109384;-62
2023/11/23 10:59:41;;;;;;;20.70;12.40;;;;;;;8.28;48.54;101243.35;107666;1253;108539;-61
2023/11/23 11:02:12;;;;;;;19.00;12.30;;;;;;;8.15;48.81;101239.80;107622;1252;97839;-60
2023/11/23 11:04:40;;;;;;;44.60;15.60;;;;;;;8.01;48.97;101234.17;107599;1255;97741;-61
2023/11/23 11:07:11;;;;;;;30.30;14.60;;;;;;;7.94;49.17;101230.20;107540;1251;110332;-65
2023/11/23 11:09:39;;;;;;;24.70;12.90;;;;;;;7.91;49.66;101223.44;107624;1253;109716;-62
2023/11/23 11:12:12;;;;;;;27.80;14.40;;;;;;;8.04;50.24;101217.51;107614;1253;107350;-62